Latest Weather Observations for Trepell

IDQ60801

Issued at 8:02 pm EST Saturday 18 November 2017 (issued every 30 minutes, with the page automatically refreshed every 10 minutes)

About weather observations | Map of weather stations | Latest weather observations for QLD | Other Formats
Station Details ID: 037036 Name: TREPELL AIRPORT Lat: -21.84 Lon: 140.89 Height: 266.2 m
Data from the previous 72 hours. | See also: Recent months at Trepell
Date/Time
EST
Temp
°C
App
Temp
°C
Dew
Point
°C
Rel
Hum
%
Delta-T
°C
Wind Press
QNH
hPa
Press
MSL
hPa
Rain since
9am
mm
Dir  Spd
km/h
Gust
km/h
Spd
kts
Gust
kts
18/08:00pm 28.9 23.7 -10.3 7 15.7 SW 11 13 6 7 1008.9 1007.0 0.0
18/07:30pm 31.0 25.2 -8.8 7 16.7 SSW 15 19 8 10 1008.7 1006.8 0.0
18/07:00pm 32.4 26.3 -7.8 7 17.4 S 17 20 9 11 1008.6 1006.6 0.0
18/06:30pm 34.1 27.5 -6.5 7 18.1 SSW 20 24 11 13 1008.4 1006.4 0.0
18/06:00pm 35.0 29.1 -5.9 7 18.6 SSW 17 28 9 15 1008.2 1006.2 0.0
18/05:30pm 35.6 29.3 -5.5 7 18.9 S 19 28 10 15 1007.9 1006.0 0.0
18/05:00pm 36.4 30.6 -4.9 7 19.3 SSW 17 24 9 13 1007.9 1006.0 0.0
18/04:30pm 36.3 31.0 -3.2 8 18.9 S 15 24 8 13 1008.1 1006.1 0.0
18/04:00pm 36.4 30.4 -3.1 8 19.0 WSW 19 26 10 14 1008.3 1006.3 0.0
18/03:30pm 35.9 30.2 -3.5 8 18.7 WSW 17 33 9 18 1008.4 1006.4 0.0
18/03:00pm 36.1 30.3 -1.7 9 18.5 SW 19 37 10 20 1008.8 1006.9 0.0
18/02:30pm 35.8 31.7 -0.5 10 18.1 W 11 24 6 13 1009.1 1007.2 0.0
18/02:00pm 35.3 29.0 -0.9 10 17.9 WSW 22 32 12 17 1009.7 1007.8 0.0
18/01:30pm 35.9 29.3 -0.5 10 18.1 SSW 24 37 13 20 1010.2 1008.3 0.0
18/01:00pm 35.3 28.8 0.4 11 17.6 SW 24 37 13 20 1010.7 1008.8 0.0
18/12:30pm 34.3 28.1 -0.4 11 17.1 SW 22 39 12 21 1011.2 1009.3 0.0
18/12:00pm 33.7 27.0 -0.8 11 16.9 SSW 24 33 13 18 1011.7 1009.8 0.0
18/11:30am 33.8 27.7 0.5 12 16.6 SSW 22 33 12 18 1012.2 1010.3 0.0
18/11:00am 32.6 26.8 -1.7 11 16.4 S 19 28 10 15 1012.4 1010.5 0.0
18/10:30am 32.4 26.9 -1.8 11 16.3 S 17 28 9 15 1012.6 1010.7 0.0
18/10:00am 30.8 25.0 -4.3 10 15.9 S 17 24 9 13 1012.9 1011.0 0.0
18/09:30am 29.7 24.0 -3.9 11 15.1 S 17 26 9 14 1013.3 1011.4 0.0
18/09:00am 28.9 23.3 -3.3 12 14.6 S 17 24 9 13 1013.4 1011.5 0.0
18/08:30am 26.5 21.1 -4.1 13 13.4 S 15 20 8 11 1013.5 1011.6 0.0
18/08:00am 25.3 19.9 -4.1 14 12.7 S 15 20 8 11 1013.4 1011.5 0.0
18/07:30am 24.0 18.9 -5.1 14 12.2 SSW 13 17 7 9 1013.2 1011.3 0.0
18/07:00am 22.8 18.6 -4.3 16 11.4 SSW 9 13 5 7 1013.0 1011.1 0.0
18/06:30am 20.6 16.8 -3.8 19 10.2 SW 7 9 4 5 1012.7 1010.8 0.0
18/06:00am 19.1 14.5 -3.7 21 9.4 SW 11 13 6 7 1012.5 1010.6 0.0
18/05:30am 19.0 14.4 -3.8 21 9.4 SW 11 13 6 7 1012.1 1010.2 0.0
18/05:00am 19.1 14.2 -3.7 21 9.4 SW 13 15 7 8 1012.0 1010.0 0.0
18/04:30am 19.3 14.8 -2.9 22 9.3 SW 11 13 6 7 1011.6 1009.7 0.0
18/04:00am 19.7 15.6 -3.2 21 9.6 SW 9 11 5 6 1011.5 1009.6 0.0
18/03:30am 19.9 15.7 -3.7 20 9.8 SSW 9 11 5 6 1011.4 1009.5 0.0
18/03:00am 20.7 16.6 -3.0 20 10.1 S 9 11 5 6 1011.4 1009.5 0.0
18/02:30am 21.3 16.8 -3.2 19 10.4 S 11 13 6 7 1011.5 1009.6 0.0
18/02:00am 21.5 16.9 -3.8 18 10.7 SSW 11 11 6 6 1011.7 1009.8 0.0
18/01:30am 22.1 17.9 -4.1 17 11.0 SSW 9 11 5 6 1012.0 1010.0 0.0
18/01:00am 22.9 18.7 -4.2 16 11.5 SSW 9 11 5 6 1012.1 1010.2 0.0
18/12:30am 24.0 19.4 -4.2 15 12.1 SSW 11 13 6 7 1012.4 1010.5 0.0
18/12:00am 24.5 19.6 -3.8 15 12.2 SSW 13 15 7 8 1012.6 1010.7 0.0
 
Date/Time
EST
Temp
°C
App
Temp
°C
Dew
Point
°C
Rel
Hum
%
Delta-T
°C
Wind Press
QNH
hPa
Press
MSL
hPa
Rain since
9am
mm
Dir  Spd
km/h
Gust
km/h
Spd
kts
Gust
kts
17/11:30pm 25.6 20.7 -3.8 14 12.8 SSW 13 17 7 9 1012.8 1010.9 0.0
17/11:00pm 26.8 21.2 -2.9 14 13.3 SSW 17 20 9 11 1012.8 1010.9 0.0
17/10:30pm 27.8 22.3 -2.1 14 13.7 SSW 17 22 9 12 1012.5 1010.6 0.0
17/10:00pm 28.8 23.3 0.5 16 13.7 SSW 19 24 10 13 1012.1 1010.2 0.0
17/09:30pm 28.8 24.9 3.6 20 12.9 SSW 13 17 7 9 1011.5 1009.6 0.0
17/09:00pm 29.9 25.7 3.8 19 13.5 SSW 15 20 8 11 1011.2 1009.3 0.0
17/08:30pm 30.9 26.5 4.6 19 13.8 SSW 17 22 9 12 1010.9 1009.0 0.0
17/08:00pm 31.5 27.0 4.3 18 14.3 SSW 17 22 9 12 1010.4 1008.5 0.0
17/07:30pm 32.0 27.2 4.7 18 14.5 SW 19 24 10 13 1010.2 1008.3 0.0
17/07:00pm 32.9 28.1 4.6 17 15.1 SW 19 26 10 14 1009.8 1007.9 0.0
17/06:30pm 33.8 29.2 5.4 17 15.4 SSW 19 28 10 15 1009.6 1007.7 0.0
17/06:00pm 34.3 29.5 4.9 16 15.9 SSW 19 28 10 15 1009.3 1007.4 0.0
17/05:30pm 34.3 30.5 4.0 15 16.1 SW 13 19 7 10 1009.3 1007.4 0.0
17/05:00pm 35.3 29.6 4.8 15 16.5 SW 24 33 13 18 1009.3 1007.4 0.0
17/04:30pm 35.1 30.7 4.6 15 16.4 WSW 17 24 9 13 1009.3 1007.4 0.0
17/04:00pm 35.3 31.3 4.8 15 16.5 SSW 15 26 8 14 1009.5 1007.6 0.0
17/03:30pm 35.5 31.1 4.9 15 16.6 SSW 17 22 9 12 1009.8 1007.9 0.0
17/03:00pm 35.0 31.1 3.5 14 16.7 WSW 13 22 7 12 1010.2 1008.3 0.0
17/02:30pm 34.6 29.7 2.2 13 16.7 S 17 26 9 14 1010.5 1008.6 0.0
17/02:00pm 33.7 29.6 2.5 14 16.1 SSE 13 20 7 11 1010.9 1009.0 0.0
17/01:30pm 33.6 30.3 2.4 14 16.1 SE 9 15 5 8 1011.3 1009.4 0.0
17/01:00pm 32.8 29.2 2.8 15 15.5 S 11 17 6 9 1012.0 1010.0 0.0
17/12:30pm 32.3 28.0 3.3 16 15.0 S 15 28 8 15 1012.5 1010.6 0.0
17/12:00pm 32.7 28.8 3.6 16 15.2 SSE 13 20 7 11 1012.9 1011.0 0.0
17/11:30am 31.4 27.7 2.6 16 14.7 SSE 11 22 6 12 1013.4 1011.5 0.0
17/11:00am 30.2 26.5 2.5 17 14.0 SE 11 20 6 11 1013.8 1011.9 0.0
17/10:30am 30.5 25.7 2.7 17 14.1 SSE 17 24 9 13 1014.1 1012.2 0.0
17/10:00am 27.9 23.2 2.9 20 12.5 S 17 22 9 12 1014.5 1012.6 0.0
17/09:30am 28.4 22.8 3.3 20 12.7 S 22 30 12 16 1014.6 1012.7 0.0
17/09:00am 27.1 21.8 2.9 21 12.1 SSW 20 30 11 16 1014.5 1012.6 -
17/08:30am 27.1 21.4 2.9 21 12.1 SSW 22 30 12 16 1014.7 1012.8 -
17/08:00am 25.6 20.3 2.9 23 11.2 S 20 30 11 16 1014.2 1012.3 -
17/07:30am 25.0 20.4 3.6 25 10.7 S 17 20 9 11 1013.8 1011.9 -
17/07:00am 23.7 19.8 3.6 27 9.9 S 13 17 7 9 1013.3 1011.4 -
17/06:30am 23.0 19.6 4.0 29 9.4 S 11 17 6 9 1013.0 1011.1 -
17/06:00am 22.6 18.8 3.7 29 9.3 SSW 13 17 7 9 1012.6 1010.7 -
17/05:30am 22.6 19.1 3.7 29 9.3 SSW 11 15 6 8 1012.2 1010.3 -
17/05:00am 22.8 18.9 3.4 28 9.5 SSW 13 17 7 9 1012.1 1010.2 -
17/04:30am 22.2 18.6 2.8 28 9.3 SSW 11 13 6 7 1012.1 1010.2 -
17/04:00am 23.0 20.1 2.5 26 9.9 S 7 9 4 5 1011.8 1009.9 -
17/03:30am 23.5 20.6 2.4 25 10.2 SW 7 9 4 5 1011.7 1009.8 -
17/03:00am 23.9 20.2 2.1 24 10.5 SSW 11 13 6 7 1011.7 1009.8 0.0
17/02:30am 24.3 20.9 1.9 23 10.8 SSW 9 13 5 7 1012.0 1010.0 -
17/02:00am 25.0 21.3 2.4 23 11.0 S 11 13 6 7 1012.2 1010.3 -
17/01:30am 25.1 21.0 2.5 23 11.0 S 13 17 7 9 1012.3 1010.4 -
17/01:00am 25.1 21.0 2.5 23 11.0 S 13 15 7 8 1012.6 1010.7 -
17/12:30am 25.7 21.6 2.4 22 11.4 S 13 17 7 9 1012.5 1010.6 -
17/12:00am 26.4 21.2 2.3 21 11.8 S 19 24 10 13 1012.7 1010.8 -
 
Date/Time
EST
Temp
°C
App
Temp
°C
Dew
Point
°C
Rel
Hum
%
Delta-T
°C
Wind Press
QNH
hPa
Press
MSL
hPa
Rain since
9am
mm
Dir  Spd
km/h
Gust
km/h
Spd
kts
Gust
kts
16/11:30pm 26.8 21.9 2.0 20 12.1 S 17 24 9 13 1012.8 1010.9 -
16/11:00pm 27.1 22.5 1.5 19 12.5 SSW 15 20 8 11 1012.6 1010.7 -
16/10:30pm 27.8 23.9 1.3 18 12.9 S 11 15 6 8 1012.3 1010.4 -
16/10:00pm 28.4 24.1 1.0 17 13.3 S 13 19 7 10 1012.2 1010.3 -
16/09:30pm 29.4 24.5 1.8 17 13.7 S 17 24 9 13 1011.4 1009.5 -
16/09:00pm 30.0 24.8 2.3 17 13.9 S 19 26 10 14 1010.9 1009.0 0.0
16/08:30pm 30.9 25.7 3.8 18 14.1 S 20 26 11 14 1010.7 1008.8 -
16/08:00pm 32.0 26.5 3.9 17 14.7 S 22 32 12 17 1010.3 1008.4 -
16/07:30pm 32.8 28.0 5.4 18 14.7 S 20 28 11 15 1009.9 1008.0 -
16/07:00pm 33.2 28.4 5.7 18 14.9 S 20 28 11 15 1009.7 1007.8 -
16/06:30pm 33.7 28.2 6.1 18 15.1 SSW 24 35 13 19 1009.5 1007.6 -
16/06:00pm 34.5 29.0 5.9 17 15.7 SSW 24 32 13 17 1009.2 1007.3 -
16/05:30pm 34.9 29.1 6.2 17 15.8 S 26 39 14 21 1008.9 1007.0 -
16/05:00pm 35.9 30.9 7.9 18 15.9 SSW 24 35 13 19 1008.6 1006.6 -
16/04:30pm 36.4 31.8 8.3 18 16.1 SSW 22 30 12 16 1008.5 1006.5 -
16/04:00pm 35.7 31.4 7.7 18 15.9 SSW 20 28 11 15 1008.7 1006.8 -
16/03:30pm 35.9 31.2 7.9 18 15.9 SSW 22 33 12 18 1008.8 1006.9 -
16/03:00pm 36.6 33.8 10.0 20 15.7 SW 15 24 8 13 1008.9 1007.0 -
16/02:30pm 35.3 33.0 10.4 22 14.7 SSE 13 26 7 14 1009.2 1007.3 -
16/02:00pm 35.6 32.6 10.6 22 14.8 SSW 17 32 9 17 1009.8 1007.9 -
16/12:00pm 34.0 33.6 14.0 30 12.4 ESE 9 15 5 8 1011.4 1009.5 0.0
16/11:30am 32.9 31.4 13.0 30 12.1 SSE 13 20 7 11 1011.8 1009.9 0.0
16/11:00am 31.9 31.0 13.6 32 11.2 SW 11 19 6 10 1012.3 1010.4 0.0
16/10:30am 31.5 29.8 13.7 33 10.8 S 15 22 8 12 1012.9 1011.0 0.0
16/10:00am 30.2 28.6 13.9 37 9.9 S 15 20 8 11 1013.1 1011.2 0.0
16/09:30am 29.5 27.9 14.9 41 9.0 S 17 20 9 11 1013.2 1011.3 0.0
16/09:00am 28.6 27.5 15.2 44 8.3 SSW 15 19 8 10 1013.3 1011.4 0.0
16/08:30am 28.7 27.7 14.5 42 8.7 S 13 17 7 9 1013.2 1011.3 0.0
16/08:00am 27.5 27.1 15.2 47 7.6 SSE 11 15 6 8 1013.1 1011.2 0.0
16/07:30am 26.0 26.7 17.1 58 5.6 S 9 13 5 7 1013.2 1011.3 0.0
16/07:00am 24.9 25.4 17.4 63 4.7 SSW 11 15 6 8 1013.0 1011.1 0.0
16/06:30am 24.0 24.9 17.5 67 4.1 SSW 9 13 5 7 1012.6 1010.7 0.0
16/06:00am 23.3 24.5 17.3 69 3.8 SSW 7 9 4 5 1012.3 1010.4 0.0
16/05:30am 23.4 24.0 17.6 70 3.6 SSW 11 13 6 7 1012.2 1010.3 0.0
16/05:00am 23.2 24.6 17.9 72 3.3 WSW 7 9 4 5 1011.8 1009.9 0.0
16/04:30am 23.1 24.5 17.8 72 3.3 WSW 7 9 4 5 1011.6 1009.7 0.0
16/04:00am 23.1 23.3 17.6 71 3.5 SW 13 15 7 8 1011.5 1009.6 0.0
16/03:30am 23.5 24.0 17.5 69 3.8 SW 11 15 6 8 1011.4 1009.5 0.0
16/03:00am 23.4 25.4 17.8 71 3.5 S 4 9 2 5 1011.0 1009.1 0.0
16/02:30am 23.5 23.7 17.7 70 3.7 NNW 13 17 7 9 1010.7 1008.8 0.0
16/02:00am 24.5 26.8 16.7 61 4.9 CALM 0 6 0 3 1011.3 1009.4 0.0
16/01:30am 24.6 25.2 15.8 58 5.4 NNE 7 11 4 6 1011.5 1009.6 0.0
16/01:00am 24.7 23.1 15.1 55 5.8 S 17 22 9 12 1011.5 1009.6 0.0
16/12:30am 25.4 23.3 14.8 52 6.4 S 19 28 10 15 1012.1 1010.2 0.0
16/12:00am 26.8 24.9 15.8 51 6.8 SSW 20 30 11 16 1012.2 1010.3 0.0
 
Date/Time
EST
Temp
°C
App
Temp
°C
Dew
Point
°C
Rel
Hum
%
Delta-T
°C
Wind Press
QNH
hPa
Press
MSL
hPa
Rain since
9am
mm
Dir  Spd
km/h
Gust
km/h
Spd
kts
Gust
kts
15/11:30pm 26.2 26.4 17.6 59 5.5 SW 13 17 7 9 1012.1 1010.2 0.0
15/11:00pm 25.9 25.8 17.0 58 5.6 W 13 20 7 11 1011.6 1009.7 0.0
15/10:30pm 26.0 26.9 16.5 55 5.9 N 7 9 4 5 1011.3 1009.4 0.0
15/10:00pm 27.4 26.7 16.4 51 6.9 NNW 15 19 8 10 1011.4 1009.5 0.0
15/09:30pm 28.4 26.9 15.3 45 8.1 NW 17 20 9 11 1011.5 1009.6 0.0
15/09:00pm 28.4 25.5 16.0 47 7.7 WNW 26 43 14 23 1011.8 1009.9 0.0
15/08:59pm 28.2 25.7 16.1 47 7.6 WNW 24 43 13 23 1011.8 1009.9 0.0
15/08:30pm 27.0 26.0 15.7 50 7.0 NE 15 19 8 10 1011.0 1009.1 0.0

Other Formats:

Comma delimited format used in spreadsheet applications
http://www.bom.gov.au/fwo/IDQ60801/IDQ60801.94338.axf

JavaScript Object Notation format (JSON) in row-major order
http://www.bom.gov.au/fwo/IDQ60801/IDQ60801.94338.json